Time;durP1;ratioP1;P1;durP2;ratioP2;P2;SDS_P1;SDS_P2;PMS_P1;PMS_P2;Temp;Humidity;BMP_temperature;BMP_pressure;BME280_temperature;BME280_humidity;BME280_pressure;Samples;Min_cycle;Max_cycle;Signal;HPM_P1;HPM_P2
2023/12/20 00:02:16;;;;;;;10.55;6.43;;;6.90;99.90;;;;;;2602472;54;20030;31
2023/12/20 00:04:50;;;;;;;9.85;6.05;;;6.90;99.90;;;;;;2621105;46;20910;31
2023/12/20 00:07:26;;;;;;;10.65;6.20;;;6.90;99.90;;;;;;2602681;54;20026;31
2023/12/20 00:10:01;;;;;;;11.30;6.20;;;6.90;99.90;;;;;;2700957;39;20456;31
2023/12/20 00:12:35;;;;;;;8.65;5.68;;;6.90;99.90;;;;;;2602726;54;21221;31
2023/12/20 00:15:14;;;;;;;9.80;5.95;;;6.90;99.90;;;;;;2602390;54;20803;31
2023/12/20 00:17:50;;;;;;;10.85;5.65;;;7.00;99.90;;;;;;2602473;54;20769;31
2023/12/20 00:20:25;;;;;;;11.23;6.87;;;6.90;99.90;;;;;;2602647;54;20783;31
2023/12/20 00:23:01;;;;;;;11.10;5.80;;;6.90;99.90;;;;;;2602462;54;20784;31
2023/12/20 00:25:37;;;;;;;9.02;5.20;;;6.90;99.90;;;;;;2602705;54;20997;31
2023/12/20 00:28:12;;;;;;;;;;;6.90;99.90;;;;;;2602531;54;20030;31
2023/12/20 00:30:51;;;;;;;15.27;8.25;;;6.80;99.90;;;;;;2602487;54;20014;31
2023/12/20 00:33:26;;;;;;;11.25;5.57;;;6.90;99.90;;;;;;2602462;54;20036;31
2023/12/20 00:36:01;;;;;;;9.77;5.25;;;6.90;99.90;;;;;;2602688;54;20149;31
2023/12/20 00:38:37;;;;;;;9.40;5.55;;;6.80;99.90;;;;;;2602241;54;20026;31
2023/12/20 00:41:12;;;;;;;10.13;5.07;;;6.80;99.90;;;;;;2602498;54;21615;31
2023/12/20 00:43:47;;;;;;;7.53;4.73;;;6.80;99.90;;;;;;2602346;54;20109;31
2023/12/20 00:46:24;;;;;;;7.80;4.65;;;6.80;99.90;;;;;;2601995;54;20029;31
2023/12/20 00:49:00;;;;;;;9.13;5.27;;;6.80;99.90;;;;;;2602147;54;20902;31
2023/12/20 00:51:35;;;;;;;10.88;6.82;;;6.80;99.90;;;;;;2620786;47;20230;31
2023/12/20 00:54:11;;;;;;;10.68;6.25;;;6.80;99.90;;;;;;2602449;54;20834;31
2023/12/20 00:56:47;;;;;;;8.70;5.72;;;6.80;99.90;;;;;;2602396;54;20032;31
2023/12/20 00:59:23;;;;;;;11.90;5.70;;;6.80;99.90;;;;;;2602163;54;20608;31
2023/12/20 01:02:01;;;;;;;10.32;6.10;;;6.80;99.90;;;;;;2602184;54;20026;31
2023/12/20 01:04:37;;;;;;;12.15;6.40;;;6.80;99.90;;;;;;2700703;39;20521;31
2023/12/20 01:07:12;;;;;;;13.02;5.72;;;6.80;99.90;;;;;;2602334;54;20072;31
2023/12/20 01:09:48;;;;;;;9.15;6.13;;;6.80;99.90;;;;;;2621313;46;20037;31
2023/12/20 01:12:23;;;;;;;10.30;6.30;;;6.80;99.90;;;;;;2603080;54;20032;31
2023/12/20 01:15:01;;;;;;;11.40;7.30;;;6.80;99.90;;;;;;2621488;46;20874;31
2023/12/20 01:17:40;;;;;;;10.35;6.50;;;6.90;99.90;;;;;;2603328;54;20758;31
2023/12/20 01:20:16;;;;;;;10.30;6.88;;;6.80;99.90;;;;;;2602767;54;20038;31
2023/12/20 01:22:52;;;;;;;10.17;6.33;;;6.80;99.90;;;;;;2602942;54;20077;31
2023/12/20 01:25:29;;;;;;;9.40;5.90;;;6.80;99.90;;;;;;2603121;54;20845;31
2023/12/20 01:28:06;;;;;;;10.10;5.82;;;6.80;99.90;;;;;;2603150;54;20054;31
2023/12/20 01:30:42;;;;;;;8.27;5.00;;;6.80;99.90;;;;;;2719946;39;22307;31
2023/12/20 01:33:20;;;;;;;8.35;4.70;;;6.90;99.90;;;;;;2603057;54;20692;31
2023/12/20 01:35:55;;;;;;;7.85;4.22;;;6.80;99.90;;;;;;2621504;46;20027;31
2023/12/20 01:38:30;;;;;;;7.60;3.28;;;6.80;99.90;;;;;;2603006;54;20931;31
2023/12/20 01:41:05;;;;;;;7.60;3.83;;;6.80;99.90;;;;;;2621326;46;20026;31
2023/12/20 01:43:41;;;;;;;6.07;3.65;;;6.70;99.90;;;;;;2603206;54;20888;31
2023/12/20 01:46:25;;;;;;;5.40;3.70;;;6.80;99.90;;;;;;2603179;54;20890;31
2023/12/20 01:49:04;;;;;;;6.00;3.40;;;6.80;99.90;;;;;;2603150;54;20905;31
2023/12/20 01:51:39;;;;;;;5.32;3.20;;;6.80;99.90;;;;;;2603155;54;20030;31
2023/12/20 01:54:14;;;;;;;4.70;3.27;;;6.80;99.90;;;;;;2603068;54;20026;31
2023/12/20 01:56:48;;;;;;;4.40;3.17;;;6.80;99.90;;;;;;2602876;54;21138;31
2023/12/20 01:59:24;;;;;;;5.93;2.97;;;6.80;99.90;;;;;;2621381;46;20034;31
2023/12/20 02:01:59;;;;;;;5.30;2.60;;;6.80;99.90;;;;;;2602885;54;20798;31
2023/12/20 02:04:37;;;;;;;5.03;2.80;;;6.80;99.90;;;;;;2602875;54;20080;31
2023/12/20 02:07:13;;;;;;;5.45;3.20;;;6.80;99.90;;;;;;2621556;46;20022;31
2023/12/20 02:09:48;;;;;;;4.32;2.67;;;6.80;99.90;;;;;;2603251;54;20127;31
2023/12/20 02:12:24;;;;;;;5.85;2.70;;;6.70;99.90;;;;;;2602939;54;20767;31
2023/12/20 02:14:58;;;;;;;4.95;2.90;;;6.80;99.90;;;;;;2602668;54;20027;31
2023/12/20 02:17:31;;;;;;;4.75;3.03;;;6.80;99.90;;;;;;2603093;54;21178;31
2023/12/20 02:20:10;;;;;;;3.55;2.30;;;6.70;99.90;;;;;;2701394;39;22304;31
2023/12/20 02:22:48;;;;;;;4.83;2.53;;;6.70;99.90;;;;;;2602946;54;20033;31
2023/12/20 02:25:24;;;;;;;3.90;2.15;;;6.70;99.90;;;;;;2602848;54;20037;31
2023/12/20 02:27:58;;;;;;;4.68;2.15;;;6.70;99.90;;;;;;2701207;39;20513;31
2023/12/20 02:30:34;;;;;;;4.25;2.25;;;6.60;99.90;;;;;;2602838;54;20037;31
2023/12/20 02:33:07;;;;;;;4.53;2.17;;;6.60;99.90;;;;;;2621216;46;20915;31
2023/12/20 02:35:43;;;;;;;5.03;3.08;;;6.50;99.90;;;;;;2602924;54;20048;31
2023/12/20 02:38:20;;;;;;;4.85;2.40;;;6.50;99.90;;;;;;2701228;39;20633;31
2023/12/20 02:40:56;;;;;;;3.43;1.73;;;6.50;99.90;;;;;;2621271;46;20132;31
2023/12/20 02:43:31;;;;;;;4.13;2.08;;;6.50;99.90;;;;;;2602925;54;21138;31
2023/12/20 02:46:07;;;;;;;2.70;2.03;;;6.50;99.90;;;;;;2603047;54;20860;31
2023/12/20 02:48:41;;;;;;;4.10;2.50;;;6.50;99.90;;;;;;2602808;54;20034;31
2023/12/20 02:51:17;;;;;;;3.85;2.10;;;6.40;99.90;;;;;;2602769;54;20038;31
2023/12/20 02:53:54;;;;;;;3.07;1.80;;;6.40;99.90;;;;;;2602779;54;20121;31
2023/12/20 02:56:28;;;;;;;4.00;1.55;;;6.40;99.90;;;;;;2621629;46;20030;31
2023/12/20 02:59:05;;;;;;;4.88;1.77;;;6.40;99.90;;;;;;2621478;46;20048;31
2023/12/20 03:01:42;;;;;;;3.60;2.10;;;6.30;99.90;;;;;;2602465;54;20771;31
2023/12/20 03:04:18;;;;;;;4.68;2.35;;;6.30;99.90;;;;;;2701219;39;21300;31
2023/12/20 03:06:53;;;;;;;6.63;2.40;;;6.30;99.90;;;;;;2603052;54;20977;31
2023/12/20 03:09:31;;;;;;;3.65;2.10;;;6.30;99.90;;;;;;2701141;39;21515;31
2023/12/20 03:12:25;;;;;;;4.20;1.92;;;6.30;99.90;;;;;;2621232;46;20034;31
2023/12/20 03:15:01;;;;;;;2.90;2.10;;;6.30;99.90;;;;;;2602902;54;20038;31
2023/12/20 03:17:36;;;;;;;2.95;2.03;;;6.20;99.90;;;;;;2701292;39;20493;31
2023/12/20 03:20:12;;;;;;;3.10;1.30;;;6.20;99.90;;;;;;2719857;39;20428;31
2023/12/20 03:22:47;;;;;;;2.65;1.63;;;6.20;99.90;;;;;;2621067;46;20238;31
2023/12/20 03:25:24;;;;;;;4.15;1.90;;;6.20;99.90;;;;;;2602742;54;20034;31
2023/12/20 03:27:58;;;;;;;3.28;1.85;;;6.20;99.90;;;;;;2602905;54;20972;31
2023/12/20 03:30:33;;;;;;;2.65;0.90;;;6.20;99.90;;;;;;2602529;54;20030;31
2023/12/20 03:33:08;;;;;;;3.67;1.33;;;6.20;99.90;;;;;;2602636;54;20919;31
2023/12/20 03:35:44;;;;;;;2.78;1.25;;;6.10;99.90;;;;;;2602862;54;20862;31
2023/12/20 03:38:19;;;;;;;3.88;1.23;;;6.10;99.90;;;;;;2602587;54;20026;31
2023/12/20 03:40:56;;;;;;;1.90;1.05;;;6.10;99.90;;;;;;2602553;54;20937;31
2023/12/20 03:43:31;;;;;;;2.85;1.13;;;6.10;99.90;;;;;;2602572;54;20037;31
2023/12/20 03:46:07;;;;;;;1.80;0.80;;;6.00;99.90;;;;;;2602862;54;20030;31
2023/12/20 03:48:42;;;;;;;1.52;0.73;;;6.00;99.90;;;;;;2602532;54;20034;31
2023/12/20 03:51:16;;;;;;;1.10;0.70;;;6.00;99.90;;;;;;2602532;54;20573;31
2023/12/20 03:53:51;;;;;;;2.10;0.70;;;6.00;99.90;;;;;;2602682;54;20884;31
2023/12/20 03:56:29;;;;;;;1.10;0.60;;;5.90;99.90;;;;;;2602720;54;20022;31
2023/12/20 03:59:04;;;;;;;3.22;0.95;;;6.00;99.90;;;;;;2602964;54;20874;31
2023/12/20 04:01:38;;;;;;;1.20;0.45;;;5.90;99.90;;;;;;2602504;54;20027;31
2023/12/20 04:04:13;;;;;;;1.10;0.50;;;5.90;99.90;;;;;;2621014;46;20089;31
2023/12/20 04:06:49;;;;;;;1.55;1.05;;;5.90;99.90;;;;;;2602698;54;20057;31
2023/12/20 04:09:24;;;;;;;1.23;0.63;;;5.90;99.90;;;;;;2602475;54;20037;31
2023/12/20 04:12:02;;;;;;;1.20;0.60;;;5.80;99.90;;;;;;2602533;54;20077;31
2023/12/20 04:14:38;;;;;;;1.73;0.83;;;5.80;99.90;;;;;;2602554;54;20892;31
2023/12/20 04:17:12;;;;;;;1.67;0.77;;;5.80;99.90;;;;;;2602491;54;20050;31
2023/12/20 04:19:47;;;;;;;1.70;0.90;;;5.80;99.90;;;;;;2602617;54;20048;31
2023/12/20 04:22:23;;;;;;;1.85;0.70;;;5.80;99.90;;;;;;2602477;54;20864;31
2023/12/20 04:24:57;;;;;;;0.93;0.53;;;5.80;99.90;;;;;;2602149;54;20061;31
2023/12/20 04:27:36;;;;;;;1.85;0.50;;;5.80;99.90;;;;;;2602363;54;20042;31
2023/12/20 04:30:11;;;;;;;1.63;0.70;;;5.80;99.90;;;;;;2620939;47;20897;31
2023/12/20 04:32:47;;;;;;;1.20;0.73;;;5.80;99.90;;;;;;2620941;47;20031;31
2023/12/20 04:35:22;;;;;;;1.23;0.50;;;5.70;99.90;;;;;;2602995;47;20030;31
2023/12/20 04:37:57;;;;;;;1.90;0.80;;;5.70;99.90;;;;;;2602460;54;20035;31
2023/12/20 04:40:32;;;;;;;1.80;0.77;;;5.80;99.90;;;;;;2602584;54;20825;31
2023/12/20 04:43:10;;;;;;;1.20;0.50;;;5.70;99.90;;;;;;2602979;54;20031;31
2023/12/20 04:45:45;;;;;;;3.78;0.90;;;5.70;99.90;;;;;;2603237;54;21568;31
2023/12/20 04:48:20;;;;;;;1.48;0.70;;;5.70;99.90;;;;;;2622119;46;20922;31
2023/12/20 04:50:56;;;;;;;1.85;0.80;;;5.70;99.90;;;;;;2603428;54;20890;31
2023/12/20 04:53:30;;;;;;;2.17;0.90;;;5.70;99.90;;;;;;2621843;46;20031;31
2023/12/20 04:56:06;;;;;;;1.75;0.85;;;5.70;99.90;;;;;;2603275;54;20882;31
2023/12/20 04:58:43;;;;;;;2.47;0.70;;;5.70;99.90;;;;;;2622267;46;20884;31
2023/12/20 05:01:18;;;;;;;2.65;0.70;;;5.60;99.90;;;;;;2621665;46;20026;31
2023/12/20 05:03:54;;;;;;;1.43;0.73;;;5.70;99.90;;;;;;2621779;46;20030;31
2023/12/20 05:06:29;;;;;;;1.70;0.88;;;5.60;99.90;;;;;;2621471;46;20032;31
2023/12/20 05:09:06;;;;;;;3.83;1.43;;;5.70;99.90;;;;;;2621697;46;21876;31
2023/12/20 05:11:41;;;;;;;4.43;1.15;;;5.60;99.90;;;;;;2603449;54;20995;31
2023/12/20 05:14:18;;;;;;;3.78;1.38;;;5.70;99.90;;;;;;2603304;54;20822;31
2023/12/20 05:16:52;;;;;;;4.53;1.25;;;5.70;99.90;;;;;;2603222;54;20881;31
2023/12/20 05:19:27;;;;;;;2.80;1.35;;;5.60;99.90;;;;;;2603273;54;20035;31
2023/12/20 05:22:03;;;;;;;3.25;2.15;;;5.70;99.90;;;;;;2603096;54;20845;31
2023/12/20 05:24:37;;;;;;;1.80;1.10;;;5.60;99.90;;;;;;2603104;54;20346;31
2023/12/20 05:27:13;;;;;;;2.15;1.35;;;5.60;99.90;;;;;;2602874;54;20900;31
2023/12/20 05:29:50;;;;;;;2.30;1.10;;;5.60;99.90;;;;;;2602950;54;20038;31
2023/12/20 05:32:27;;;;;;;2.35;1.20;;;5.60;99.90;;;;;;2603179;54;20995;31
2023/12/20 05:35:01;;;;;;;3.45;1.35;;;5.60;99.90;;;;;;2621732;46;20810;31
2023/12/20 05:37:36;;;;;;;2.57;1.33;;;5.60;99.90;;;;;;2603282;54;20032;31
2023/12/20 05:40:12;;;;;;;3.50;1.20;;;5.60;99.90;;;;;;2603170;54;20960;31
2023/12/20 05:42:48;;;;;;;2.65;1.33;;;5.60;99.90;;;;;;2603008;54;20030;31
2023/12/20 05:45:25;;;;;;;1.70;0.95;;;5.60;99.90;;;;;;2621652;46;20027;31
2023/12/20 05:47:59;;;;;;;3.15;1.45;;;5.60;99.90;;;;;;2602918;54;20030;31
2023/12/20 05:50:35;;;;;;;1.70;1.00;;;5.60;99.90;;;;;;2603365;54;20869;31
2023/12/20 05:53:09;;;;;;;3.40;1.23;;;5.60;99.90;;;;;;2603034;54;20034;31
2023/12/20 05:55:45;;;;;;;4.13;1.20;;;5.60;99.90;;;;;;2621668;47;20036;31
2023/12/20 05:58:19;;;;;;;3.35;1.27;;;5.60;99.90;;;;;;2603172;54;20026;31
2023/12/20 06:00:58;;;;;;;2.17;1.10;;;5.60;99.90;;;;;;2701610;39;21336;31
2023/12/20 06:03:32;;;;;;;3.27;1.23;;;5.60;99.90;;;;;;2602845;54;20069;31
2023/12/20 06:06:09;;;;;;;2.60;1.08;;;5.60;99.90;;;;;;2603021;54;20034;31
2023/12/20 06:08:50;;;;;;;3.35;1.30;;;5.60;99.90;;;;;;2620896;46;20033;31
2023/12/20 06:11:26;;;;;;;4.28;1.38;;;5.60;99.90;;;;;;2701615;39;21336;31
2023/12/20 06:14:01;;;;;;;3.78;1.42;;;5.60;99.90;;;;;;2621198;46;20033;31
2023/12/20 06:16:38;;;;;;;1.90;1.15;;;5.50;99.90;;;;;;2621248;46;20761;31
2023/12/20 06:19:14;;;;;;;3.70;1.15;;;5.60;99.90;;;;;;2603010;54;20570;31
2023/12/20 06:21:49;;;;;;;6.55;1.65;;;5.60;99.90;;;;;;2621051;46;20800;31
2023/12/20 06:24:27;;;;;;;4.57;1.65;;;5.60;99.90;;;;;;2701295;39;20398;31
2023/12/20 06:27:05;;;;;;;5.43;1.70;;;5.60;99.90;;;;;;2603066;54;20872;31
2023/12/20 06:29:40;;;;;;;2.95;1.33;;;5.60;99.90;;;;;;2603089;54;20050;31
2023/12/20 06:32:18;;;;;;;5.40;2.17;;;5.60;99.90;;;;;;2602852;54;20034;31
2023/12/20 06:34:52;;;;;;;4.10;1.55;;;5.50;99.90;;;;;;2603045;54;20754;31
2023/12/20 06:37:27;;;;;;;3.78;1.25;;;5.50;99.90;;;;;;2701142;39;20554;31
2023/12/20 06:40:03;;;;;;;2.33;1.50;;;5.50;99.90;;;;;;2602892;54;20850;31
2023/12/20 06:42:37;;;;;;;3.47;1.30;;;5.50;99.90;;;;;;2602782;54;20784;31
2023/12/20 06:45:27;;;;;;;4.60;1.40;;;5.50;99.90;;;;;;2602992;54;20267;31
2023/12/20 06:48:04;;;;;;;2.23;0.97;;;5.50;99.90;;;;;;2602860;54;20038;31
2023/12/20 06:50:39;;;;;;;3.90;1.25;;;5.50;99.90;;;;;;2603110;54;21144;31
2023/12/20 06:53:14;;;;;;;2.90;1.20;;;5.50;99.90;;;;;;2602527;54;20022;31
2023/12/20 06:55:50;;;;;;;3.50;1.48;;;5.40;99.90;;;;;;2602774;54;20052;31
2023/12/20 06:58:24;;;;;;;2.30;1.30;;;5.50;99.90;;;;;;2602887;54;20921;31
2023/12/20 07:01:02;;;;;;;3.22;1.70;;;5.50;99.90;;;;;;2602600;54;20053;31
2023/12/20 07:03:39;;;;;;;3.95;1.90;;;5.50;99.90;;;;;;2602823;54;20022;31
2023/12/20 07:06:15;;;;;;;3.22;2.00;;;5.50;99.90;;;;;;2602850;54;20960;31
2023/12/20 07:08:50;;;;;;;;;;;5.40;99.90;;;;;;2603273;54;20053;31
2023/12/20 07:11:26;;;;;;;3.03;1.38;;;5.50;99.90;;;;;;2602842;54;20733;31
2023/12/20 07:14:01;;;;;;;1.60;0.77;;;5.50;99.90;;;;;;2602925;54;20029;31
2023/12/20 07:16:34;;;;;;;2.22;0.88;;;5.40;99.90;;;;;;2621140;46;22372;31
2023/12/20 07:19:12;;;;;;;1.30;0.60;;;5.40;99.90;;;;;;2602561;54;21603;31
2023/12/20 07:21:48;;;;;;;1.05;0.50;;;5.40;99.90;;;;;;2621302;46;20766;31
2023/12/20 07:24:22;;;;;;;1.10;0.68;;;5.40;99.90;;;;;;2701077;39;20513;31
2023/12/20 07:26:57;;;;;;;0.77;0.40;;;5.40;99.90;;;;;;2621542;46;20037;31
2023/12/20 07:29:33;;;;;;;1.20;0.60;;;5.40;99.90;;;;;;2602547;54;20554;31
2023/12/20 07:32:12;;;;;;;1.55;0.50;;;5.40;99.90;;;;;;2602749;54;20784;31
2023/12/20 07:34:51;;;;;;;2.25;1.10;;;5.30;99.90;;;;;;2602528;54;20022;31
2023/12/20 07:37:27;;;;;;;3.10;1.40;;;5.30;99.90;;;;;;2602633;54;20902;31
2023/12/20 07:40:06;;;;;;;3.85;1.27;;;5.30;99.90;;;;;;2602148;54;20034;31
2023/12/20 07:42:42;;;;;;;3.45;1.25;;;5.30;99.90;;;;;;2602657;54;20764;31
2023/12/20 07:45:18;;;;;;;1.90;1.00;;;5.30;99.90;;;;;;2602577;54;20904;31
2023/12/20 07:47:57;;;;;;;2.20;0.98;;;5.30;99.90;;;;;;2602735;54;20031;31
2023/12/20 07:56:07;;;;;;;2.60;0.70;;;5.30;99.90;;;;;;2601944;54;20866;31
2023/12/20 07:58:55;;;;;;;2.33;0.70;;;5.30;99.90;;;;;;2617989;46;20065;31
2023/12/20 08:01:45;;;;;;;3.33;0.75;;;5.30;99.90;;;;;;2602553;54;20023;31
2023/12/20 08:04:26;;;;;;;3.33;1.43;;;5.30;99.90;;;;;;2601853;54;20034;31
2023/12/20 08:07:04;;;;;;;2.60;1.05;;;5.30;99.90;;;;;;2602456;54;20230;31
2023/12/20 08:09:51;;;;;;;2.53;1.17;;;5.40;99.90;;;;;;2602569;54;20849;31
2023/12/20 08:12:30;;;;;;;3.73;1.20;;;5.30;99.90;;;;;;2620962;46;20614;31
2023/12/20 08:33:26;;;;;;;1.98;0.85;;;5.30;99.90;;;;;;2601706;54;20048;31
2023/12/20 08:36:10;;;;;;;1.65;0.70;;;5.30;99.90;;;;;;2621196;47;20859;31
2023/12/20 08:38:47;;;;;;;3.50;1.40;;;5.30;99.90;;;;;;2602466;54;20788;31
2023/12/20 08:41:23;;;;;;;1.27;1.00;;;5.30;99.90;;;;;;2614417;47;20039;31
2023/12/20 08:44:01;;;;;;;2.25;1.00;;;5.30;99.90;;;;;;2620901;47;20895;31
2023/12/20 08:46:37;;;;;;;3.25;1.20;;;5.30;99.90;;;;;;2602365;54;20033;31
2023/12/20 08:49:17;;;;;;;3.00;1.20;;;5.30;99.90;;;;;;2602191;54;20124;31
2023/12/20 08:51:51;;;;;;;2.40;1.15;;;5.30;99.90;;;;;;2602520;54;22383;31
2023/12/20 08:54:27;;;;;;;2.67;1.10;;;5.30;99.90;;;;;;2602297;54;20046;31
2023/12/20 08:57:07;;;;;;;3.20;1.00;;;5.30;99.90;;;;;;2602345;54;20907;31
2023/12/20 08:59:45;;;;;;;1.48;0.80;;;5.30;99.90;;;;;;2772290;31;21304;31
2023/12/20 09:02:18;;;;;;;3.55;1.15;;;5.30;99.90;;;;;;2602073;54;20506;31
2023/12/20 09:05:00;;;;;;;2.72;1.08;;;5.30;99.90;;;;;;2602105;54;20034;31
2023/12/20 09:10:32;;;;;;;1.67;1.13;;;5.30;99.90;;;;;;2601517;54;20921;31
2023/12/20 09:13:08;;;;;;;2.50;1.40;;;5.40;99.90;;;;;;2601646;54;20970;31
2023/12/20 09:15:45;;;;;;;2.05;0.88;;;5.40;99.90;;;;;;2602359;54;20753;31
2023/12/20 09:18:21;;;;;;;2.80;1.30;;;5.40;99.90;;;;;;2602518;54;20038;31
2023/12/20 09:48:47;;;;;;;2.20;1.27;;;5.60;99.90;;;;;;2610305;54;20251;31
2023/12/20 09:54:33;;;;;;;2.30;0.80;;;5.60;99.90;;;;;;2926537;46;20086;31
2023/12/20 10:00:28;;;;;;;5.50;1.33;;;5.60;99.90;;;;;;2602784;54;20026;31
2023/12/20 10:18:47;;;;;;;3.60;1.35;;;5.60;99.90;;;;;;2602343;54;20793;31
2023/12/20 10:21:22;;;;;;;4.18;1.70;;;5.60;99.90;;;;;;2602333;54;21033;31
2023/12/20 10:26:49;;;;;;;6.30;1.90;;;5.60;99.90;;;;;;2621023;46;20902;31
2023/12/20 10:29:25;;;;;;;3.20;1.52;;;5.60;99.90;;;;;;2616671;46;20922;31
2023/12/20 10:32:01;;;;;;;;;;;5.60;99.90;;;;;;2603231;54;20037;31
2023/12/20 10:37:34;;;;;;;5.07;1.60;;;5.80;99.90;;;;;;2610761;54;19930;31
2023/12/20 10:40:12;;;;;;;4.55;1.35;;;5.90;99.90;;;;;;2621186;46;22302;31
2023/12/20 10:42:49;;;;;;;2.20;1.40;;;5.90;99.90;;;;;;2603161;54;20030;31
2023/12/20 10:54:15;;;;;;;3.40;1.00;;;6.20;99.90;;;;;;2602228;54;20030;31
2023/12/20 10:59:55;;;;;;;3.08;0.90;;;6.30;99.90;;;;;;2602589;54;20553;31
2023/12/20 11:02:40;;;;;;;4.47;1.20;;;6.40;99.90;;;;;;2602135;54;20109;31
2023/12/20 11:11:43;;;;;;;7.18;1.48;;;6.50;99.90;;;;;;2602171;54;20018;31
2023/12/20 11:14:24;;;;;;;4.37;1.33;;;6.40;99.90;;;;;;2602738;54;20026;31
2023/12/20 11:17:12;;;;;;;4.53;1.40;;;6.40;99.90;;;;;;2603258;46;20869;31
2023/12/20 11:20:04;;;;;;;4.35;1.75;;;6.40;99.90;;;;;;2602706;54;20747;31
2023/12/20 11:22:51;;;;;;;9.82;2.10;;;6.40;99.90;;;;;;2602883;54;20878;31
2023/12/20 11:25:33;;;;;;;9.13;2.23;;;6.40;99.90;;;;;;2602280;54;20065;31
2023/12/20 11:28:11;;;;;;;;;;;6.40;99.90;;;;;;2621600;46;21068;31
2023/12/20 11:30:59;;;;;;;3.75;1.00;;;6.50;99.90;;;;;;2602819;54;20815;31
2023/12/20 11:36:37;;;;;;;3.27;1.37;;;6.70;99.90;;;;;;2601860;54;20916;31
2023/12/20 11:48:10;;;;;;;2.38;0.85;;;6.80;99.90;;;;;;2700149;39;21610;31
2023/12/20 11:50:48;;;;;;;3.53;1.23;;;6.90;99.90;;;;;;2602370;54;20911;31
2023/12/20 11:56:24;;;;;;;4.80;1.05;;;6.90;99.90;;;;;;2701219;39;21333;31
2023/12/20 11:59:04;;;;;;;2.80;0.80;;;6.90;99.90;;;;;;2602675;54;22595;31
2023/12/20 12:01:56;;;;;;;4.10;1.30;;;6.90;99.90;;;;;;2621139;46;20089;31
2023/12/20 12:04:33;;;;;;;4.15;1.30;;;6.90;99.90;;;;;;2602423;54;20885;31
2023/12/20 12:07:27;;;;;;;2.45;1.05;;;6.90;99.90;;;;;;2602489;54;20778;31
2023/12/20 12:10:05;;;;;;;4.53;0.90;;;6.90;99.90;;;;;;2602507;54;20154;31
2023/12/20 12:12:49;;;;;;;3.95;1.50;;;6.90;99.90;;;;;;2601929;54;20029;31
2023/12/20 12:15:25;;;;;;;3.23;1.13;;;6.90;99.90;;;;;;2602544;54;20493;31
2023/12/20 12:18:01;;;;;;;;;;;6.80;99.90;;;;;;2602699;54;21177;31
2023/12/20 12:20:40;;;;;;;1.15;0.65;;;6.80;99.90;;;;;;2602356;54;19935;31
2023/12/20 12:23:17;;;;;;;2.90;0.73;;;6.70;99.90;;;;;;2621253;47;20929;31
2023/12/20 12:25:55;;;;;;;5.25;1.00;;;6.70;99.90;;;;;;2602674;54;20835;31
2023/12/20 12:28:34;;;;;;;4.35;0.80;;;6.60;99.90;;;;;;2602482;54;20872;31
2023/12/20 12:31:10;;;;;;;2.10;0.95;;;6.60;99.90;;;;;;2701080;39;21317;31
2023/12/20 12:33:49;;;;;;;7.95;1.98;;;6.60;99.90;;;;;;2621235;47;20878;31
2023/12/20 12:36:28;;;;;;;9.25;3.40;;;6.60;99.90;;;;;;2602320;54;20853;31
2023/12/20 12:39:08;;;;;;;11.10;3.43;;;6.60;99.90;;;;;;2700897;39;20400;31
2023/12/20 12:41:44;;;;;;;11.20;2.58;;;6.60;99.90;;;;;;2621027;47;20247;31
2023/12/20 12:44:24;;;;;;;8.80;2.10;;;6.60;99.90;;;;;;2602484;54;20892;31
2023/12/20 12:47:00;;;;;;;6.85;1.80;;;6.60;99.90;;;;;;2602129;54;20038;31
2023/12/20 12:49:40;;;;;;;6.90;2.10;;;6.80;99.90;;;;;;2620878;47;20780;31
2023/12/20 12:52:17;;;;;;;4.90;2.10;;;6.70;99.90;;;;;;2601826;54;20769;31
2023/12/20 12:54:54;;;;;;;6.27;2.00;;;6.70;99.90;;;;;;2601762;54;20081;31
2023/12/20 12:57:30;;;;;;;4.43;1.98;;;6.70;99.90;;;;;;2620502;47;20336;31
2023/12/20 13:00:11;;;;;;;5.00;1.30;;;6.70;99.90;;;;;;2602450;54;20033;31
2023/12/20 13:02:49;;;;;;;2.92;0.95;;;6.70;99.90;;;;;;2602573;54;20102;31
2023/12/20 13:05:41;;;;;;;4.70;1.20;;;6.60;99.90;;;;;;2603040;54;20030;31
2023/12/20 13:08:21;;;;;;;2.33;0.80;;;6.60;99.90;;;;;;2621706;46;20862;31
2023/12/20 13:11:04;;;;;;;5.40;1.60;;;6.50;99.90;;;;;;2622038;46;20841;31
2023/12/20 13:13:38;;;;;;;2.28;1.30;;;6.60;99.90;;;;;;2621411;46;20027;31
2023/12/20 13:16:19;;;;;;;2.13;1.02;;;6.50;99.90;;;;;;2603301;54;20897;31
2023/12/20 13:18:59;;;;;;;8.50;0.93;;;6.50;99.90;;;;;;2603139;54;20131;31
2023/12/20 13:21:44;;;;;;;5.45;1.02;;;6.50;99.90;;;;;;2616157;46;20950;31
2023/12/20 13:24:27;;;;;;;4.43;1.20;;;6.50;99.90;;;;;;2603362;54;20872;31
2023/12/20 13:27:04;;;;;;;2.87;1.00;;;6.50;99.90;;;;;;2602952;54;20027;31
2023/12/20 13:32:55;;;;;;;3.42;1.02;;;6.50;99.90;;;;;;2603096;54;20022;31
2023/12/20 13:35:32;;;;;;;3.50;0.90;;;6.50;99.90;;;;;;2621576;46;20052;31
2023/12/20 13:38:11;;;;;;;2.13;0.90;;;6.50;99.90;;;;;;2621605;46;20265;31
2023/12/20 13:40:45;;;;;;;2.25;1.05;;;6.40;99.90;;;;;;2603064;54;20034;31
2023/12/20 13:43:24;;;;;;;4.45;0.85;;;6.40;99.90;;;;;;2603063;54;20034;31
2023/12/20 13:49:08;;;;;;;3.25;1.00;;;6.40;99.90;;;;;;2602418;54;20049;31
2023/12/20 13:54:42;;;;;;;4.40;1.05;;;6.40;99.90;;;;;;2602430;54;20784;31
2023/12/20 13:57:21;;;;;;;6.15;1.30;;;6.40;99.90;;;;;;2701019;39;20485;31
2023/12/20 14:09:36;;;;;;;3.63;1.23;;;6.40;99.90;;;;;;2610415;54;20035;31
2023/12/20 14:12:16;;;;;;;3.50;0.93;;;6.40;99.90;;;;;;2602950;54;20053;31
2023/12/20 14:14:55;;;;;;;6.05;1.48;;;6.40;99.90;;;;;;2602764;54;20032;31
2023/12/20 14:17:35;;;;;;;2.80;1.10;;;6.40;99.90;;;;;;2602939;54;20034;31
2023/12/20 14:20:14;;;;;;;5.25;1.40;;;6.40;99.90;;;;;;2603171;54;20812;31
2023/12/20 14:22:53;;;;;;;4.10;1.30;;;6.40;99.90;;;;;;2701369;39;21436;31
2023/12/20 14:25:36;;;;;;;4.93;0.95;;;6.40;99.90;;;;;;2602994;54;20940;31
2023/12/20 14:28:27;;;;;;;3.92;1.20;;;6.40;99.90;;;;;;2602974;54;20804;31
2023/12/20 14:31:03;;;;;;;3.85;0.80;;;6.30;99.90;;;;;;2602787;54;20034;31
2023/12/20 14:33:41;;;;;;;4.75;1.20;;;6.30;99.90;;;;;;2602922;54;20027;31
2023/12/20 14:36:20;;;;;;;7.47;1.10;;;6.40;99.90;;;;;;2602212;54;20042;31
2023/12/20 14:38:57;;;;;;;5.00;1.73;;;6.30;99.90;;;;;;2603165;54;20029;31
2023/12/20 14:41:39;;;;;;;5.38;1.45;;;6.30;99.90;;;;;;2603131;54;20033;31
2023/12/20 14:44:16;;;;;;;5.25;0.90;;;6.40;99.90;;;;;;2621025;46;20859;31
2023/12/20 14:46:56;;;;;;;5.60;1.27;;;6.30;99.90;;;;;;2602824;54;20861;31
2023/12/20 14:49:34;;;;;;;3.45;0.95;;;6.30;99.90;;;;;;2701333;39;22307;31
2023/12/20 14:52:13;;;;;;;3.70;1.20;;;6.30;99.90;;;;;;2602912;54;20992;31
2023/12/20 14:54:48;;;;;;;5.68;1.17;;;6.30;99.90;;;;;;2602934;54;22449;31
2023/12/20 14:57:29;;;;;;;3.95;1.30;;;6.30;99.90;;;;;;2602709;54;20030;31
2023/12/20 15:00:04;;;;;;;2.00;0.65;;;6.30;99.90;;;;;;2602732;54;20030;31
2023/12/20 15:02:39;;;;;;;5.70;0.80;;;6.30;99.90;;;;;;2621387;46;20052;31
2023/12/20 15:05:14;;;;;;;4.10;1.00;;;6.30;99.90;;;;;;2602921;54;20996;31
2023/12/20 15:07:50;;;;;;;5.90;1.10;;;6.20;99.90;;;;;;2602849;54;20920;31
2023/12/20 15:10:25;;;;;;;4.25;1.50;;;6.30;99.90;;;;;;2602727;54;20265;31
2023/12/20 15:13:03;;;;;;;4.32;1.02;;;6.20;99.90;;;;;;2602872;54;20034;31
2023/12/20 15:15:37;;;;;;;4.77;1.00;;;6.20;99.90;;;;;;2719708;39;20476;31
2023/12/20 15:18:13;;;;;;;4.10;1.10;;;6.20;99.90;;;;;;2602883;54;20054;31
2023/12/20 15:20:49;;;;;;;14.15;1.58;;;6.20;99.90;;;;;;2602719;54;21181;31
2023/12/20 15:23:26;;;;;;;4.07;1.50;;;6.20;99.90;;;;;;2620804;46;20877;31
2023/12/20 15:26:00;;;;;;;6.85;1.48;;;6.20;99.90;;;;;;2602830;54;20510;31
2023/12/20 15:28:37;;;;;;;6.90;1.48;;;6.20;99.90;;;;;;2621257;46;21819;31
2023/12/20 15:31:13;;;;;;;3.93;1.13;;;6.20;99.90;;;;;;2603003;54;20034;31
2023/12/20 15:33:51;;;;;;;;;;;6.20;99.90;;;;;;2602724;54;20246;31
2023/12/20 15:36:26;;;;;;;4.45;1.65;;;6.20;99.90;;;;;;2602785;54;20685;31
2023/12/20 15:38:59;;;;;;;3.03;1.27;;;6.20;99.90;;;;;;2701321;39;22435;31
2023/12/20 15:41:35;;;;;;;5.13;1.73;;;6.10;99.90;;;;;;2602878;54;21504;31
2023/12/20 15:44:12;;;;;;;3.92;1.70;;;6.10;99.90;;;;;;2602722;54;20573;31
2023/12/20 15:46:48;;;;;;;6.00;1.52;;;6.00;99.90;;;;;;2602806;54;20600;31
2023/12/20 15:49:26;;;;;;;4.90;1.50;;;6.00;99.90;;;;;;2602369;54;20041;31
2023/12/20 15:52:02;;;;;;;2.50;1.50;;;6.00;99.90;;;;;;2614064;46;20093;31
2023/12/20 15:54:42;;;;;;;4.38;1.45;;;6.00;99.90;;;;;;2701126;39;20521;31
2023/12/20 15:57:17;;;;;;;3.50;0.98;;;6.00;99.90;;;;;;2602467;54;20037;31
2023/12/20 15:59:58;;;;;;;4.30;1.42;;;6.00;99.90;;;;;;2602676;54;20026;31
2023/12/20 16:02:34;;;;;;;4.10;1.38;;;5.90;99.90;;;;;;2602697;54;20834;31
2023/12/20 16:05:10;;;;;;;4.25;0.90;;;5.90;99.90;;;;;;2602531;54;20034;31
2023/12/20 16:07:50;;;;;;;4.97;0.90;;;5.90;99.90;;;;;;2602457;54;20693;31
2023/12/20 16:10:26;;;;;;;4.00;1.23;;;5.90;99.90;;;;;;2620749;46;20034;31
2023/12/20 16:13:01;;;;;;;4.68;1.90;;;5.90;99.90;;;;;;2602770;54;20723;31
2023/12/20 16:15:39;;;;;;;2.75;1.05;;;5.90;99.90;;;;;;2602429;54;20088;31